aviador You're here:

KFAY Decoded Metar

FAYETTEVILLE in NC, USA
Report Time2018-07-21 23:53:00
UTC Time2018-07-22 00:56:21
Flight Rules vfr VFR
Wind210° at 05 kt
W.Decomp.*RWY 22: 5.0 kt HW 0.3 kt LCW
RWY 28: 2.3 kt HW 4.5 kt LCW
W.Rank210° ranks 1
Current wind is below 210° avg. (7.1)
Visibility9999 m
Phenomena:N/A
Clouds:Scattered 070 Hf
Expected CloudBase > 5,600 ft AGL from Temp-Dew spread
CeilingNone
Temp31°C (ISA +16)
Dew Point17°C (43% RH)
Heat Index31.4°C
QNH1007 hPa
Density Alt2,510 ft
Elevation180 ft
Report Wrong Elevation
Raw Report
METAR KFAY 212353Z 21005KT 10SM SCT070 31/17 A2973 RMK AO2 SLP062 T03110172
10344 20306 52001=

Extra information for KFAY:More info

Metar Taf Metar & Taf Last 4 Metars F.Rules Stats Wind Profile Meteogram Temp Stats Airport Information Weather charts Add Link Nearby VenuesMetar ALERT Operation Metar Decoded Social comments

AIRNAV info for KFAY